createdAt,value
2019-02-24T00:03:29.571Z,1.39
2019-02-24T00:08:31.133Z,1.41
2019-02-24T00:13:32.815Z,1.38
2019-02-24T00:18:34.470Z,1.41
2019-02-24T00:23:36.044Z,1.53
2019-02-24T00:28:37.596Z,1.52
2019-02-24T00:33:39.156Z,1.73
2019-02-24T00:38:40.726Z,1.75
2019-02-24T00:43:42.349Z,1.75
2019-02-24T00:48:43.904Z,1.73
2019-02-24T00:53:45.476Z,1.69
2019-02-24T00:58:47.048Z,1.60
2019-02-24T01:03:48.593Z,1.55
2019-02-24T01:08:50.144Z,1.55
2019-02-24T01:13:51.703Z,1.57
2019-02-24T01:18:53.391Z,1.55
2019-02-24T01:23:54.961Z,1.51
2019-02-24T01:28:56.535Z,1.49
2019-02-24T01:33:58.118Z,1.48
2019-02-24T01:38:59.692Z,1.50
2019-02-24T01:44:01.381Z,1.53
2019-02-24T01:49:03.080Z,1.55
2019-02-24T01:54:04.656Z,1.60
2019-02-24T01:59:06.324Z,1.63
2019-02-24T02:04:07.868Z,1.58
2019-02-24T02:09:09.581Z,1.54
2019-02-24T02:14:11.130Z,1.52
2019-02-24T02:19:12.684Z,1.47
2019-02-24T02:24:14.470Z,1.43
2019-02-24T02:29:17.363Z,1.42
2019-02-24T02:34:18.911Z,1.39
2019-02-24T02:39:20.484Z,1.38
2019-02-24T02:44:22.045Z,1.41
2019-02-24T02:49:23.614Z,1.39
2019-02-24T02:54:25.176Z,1.39
2019-02-24T02:59:26.828Z,1.43
2019-02-24T03:04:28.381Z,1.47
2019-02-24T03:09:29.950Z,1.44
2019-02-24T03:14:31.540Z,1.41
2019-02-24T03:19:33.146Z,1.34
2019-02-24T03:24:34.718Z,1.34
2019-02-24T03:29:36.334Z,1.32
2019-02-24T03:34:38.881Z,1.29
2019-02-24T03:39:40.432Z,1.23
2019-02-24T03:44:41.995Z,1.20
2019-02-24T03:49:43.557Z,1.20
2019-02-24T03:54:45.227Z,1.20
2019-02-24T03:59:46.777Z,1.21
2019-02-24T04:04:48.466Z,1.18
2019-02-24T04:09:50.217Z,1.15
2019-02-24T04:14:51.770Z,1.13
2019-02-24T04:19:53.316Z,1.10
2019-02-24T04:24:54.890Z,1.05
2019-02-24T04:29:56.553Z,1.05
2019-02-24T04:34:58.115Z,1.02
2019-02-24T04:39:59.697Z,0.88
2019-02-24T04:45:01.267Z,0.77
2019-02-24T04:50:03.006Z,0.83
2019-02-24T04:55:04.812Z,0.85
2019-02-24T05:00:06.562Z,0.91
2019-02-24T05:05:08.111Z,0.96
2019-02-24T05:10:09.763Z,0.96
2019-02-24T05:15:11.422Z,0.99
2019-02-24T05:20:12.979Z,1.03
2019-02-24T05:25:14.543Z,1.02
2019-02-24T05:30:16.196Z,0.95
2019-02-24T05:35:17.768Z,0.97
2019-02-24T05:40:19.317Z,1.02
2019-02-24T05:45:20.864Z,1.02
2019-02-24T05:50:22.456Z,0.96
2019-02-24T05:55:24.115Z,0.98
2019-02-24T06:00:25.679Z,1.01
2019-02-24T06:05:27.234Z,0.94
2019-02-24T06:10:28.811Z,0.88
2019-02-24T06:15:30.374Z,0.98
2019-02-24T06:20:31.926Z,1.02
2019-02-24T06:25:33.499Z,1.10
2019-02-24T06:30:35.067Z,1.17
2019-02-24T06:35:36.639Z,1.22
2019-02-24T06:40:38.217Z,1.27
2019-02-24T06:45:39.771Z,1.27
2019-02-24T06:50:56.752Z,1.26
2019-02-24T06:55:58.323Z,1.27
2019-02-24T07:00:59.973Z,1.32
2019-02-24T07:06:01.535Z,1.31
2019-02-24T07:11:03.129Z,1.34
2019-02-24T07:16:04.687Z,1.45
2019-02-24T07:21:06.360Z,1.46
2019-02-24T07:26:07.911Z,1.51
2019-02-24T07:31:09.477Z,1.58
2019-02-24T07:36:11.047Z,1.69
2019-02-24T07:41:12.724Z,1.88
2019-02-24T07:46:14.305Z,2.02
2019-02-24T07:51:15.875Z,2.12
2019-02-24T07:56:17.456Z,2.23
2019-02-24T08:01:19.167Z,2.34
2019-02-24T08:06:20.728Z,2.51
2019-02-24T08:11:22.416Z,2.69
2019-02-24T08:16:23.962Z,2.76
2019-02-24T08:21:25.972Z,2.86
2019-02-24T08:26:27.548Z,2.95
2019-02-24T08:31:29.128Z,3.03
2019-02-24T08:36:30.683Z,3.10
2019-02-24T08:41:32.237Z,3.22
2019-02-24T08:46:33.761Z,3.33
2019-02-24T08:51:35.312Z,3.35
2019-02-24T08:56:36.854Z,3.44
2019-02-24T09:01:38.407Z,3.50
2019-02-24T09:06:39.986Z,3.55
2019-02-24T09:11:41.600Z,3.66
2019-02-24T09:16:43.178Z,3.86
2019-02-24T09:21:44.731Z,4.00
2019-02-24T09:26:46.305Z,4.08
2019-02-24T09:31:47.882Z,4.17
2019-02-24T09:36:49.431Z,4.26
2019-02-24T09:41:50.996Z,4.45
2019-02-24T09:46:52.591Z,4.60
2019-02-24T09:51:54.142Z,4.78
2019-02-24T09:56:55.725Z,4.91
2019-02-24T10:01:57.288Z,5.06
2019-02-24T10:06:58.866Z,5.31
2019-02-24T10:12:00.541Z,5.49
2019-02-24T10:17:02.217Z,5.57
2019-02-24T10:22:03.913Z,5.67
2019-02-24T10:27:05.483Z,5.76
2019-02-24T10:32:07.051Z,5.83
2019-02-24T10:37:08.706Z,5.95
2019-02-24T10:42:10.390Z,6.16
2019-02-24T10:47:11.962Z,6.46
2019-02-24T10:52:13.537Z,6.64
2019-02-24T10:57:15.101Z,6.75
2019-02-24T11:02:16.673Z,6.72
2019-02-24T11:07:18.232Z,6.58
2019-02-24T11:12:19.912Z,6.48
2019-02-24T11:17:21.654Z,6.34
2019-02-24T11:22:23.208Z,6.28
2019-02-24T11:27:24.945Z,6.37
2019-02-24T11:32:26.532Z,6.47
2019-02-24T11:37:28.269Z,6.63
2019-02-24T11:42:29.838Z,7.03
2019-02-24T11:47:31.400Z,10.65
2019-02-24T11:52:32.961Z,19.29
2019-02-24T11:57:34.614Z,23.07
2019-02-24T12:02:36.295Z,25.06
2019-02-24T12:07:37.853Z,25.87
2019-02-24T12:12:39.520Z,24.55
2019-02-24T12:17:41.187Z,24.55
2019-02-24T12:22:42.719Z,25.73
2019-02-24T12:27:44.293Z,26.30
2019-02-24T12:32:45.874Z,26.61
2019-02-24T12:37:47.557Z,26.60
2019-02-24T12:42:49.249Z,26.52
2019-02-24T12:47:50.842Z,26.31
2019-02-24T12:52:52.488Z,25.72
2019-02-24T12:57:54.053Z,25.12
2019-02-24T13:02:55.681Z,24.98
2019-02-24T13:07:58.069Z,24.67
2019-02-24T13:12:59.808Z,24.46
2019-02-24T13:18:01.520Z,24.19
2019-02-24T13:23:03.211Z,24.13
2019-02-24T13:28:05.152Z,23.87
2019-02-24T13:33:07.548Z,23.39
2019-02-24T13:38:09.462Z,23.35
2019-02-24T13:43:11.274Z,22.97
2019-02-24T13:48:12.971Z,22.14
2019-02-24T13:53:14.589Z,19.23
2019-02-24T13:58:16.230Z,18.51
2019-02-24T14:03:17.915Z,17.96
2019-02-24T14:08:19.684Z,18.55
2019-02-24T14:13:21.381Z,18.84
2019-02-24T14:18:23.010Z,17.74
2019-02-24T14:23:24.678Z,15.40
2019-02-24T14:28:26.268Z,14.35
2019-02-24T14:33:29.162Z,14.03
2019-02-24T14:38:30.864Z,13.81
2019-02-24T14:43:32.424Z,13.19
2019-02-24T14:48:34.132Z,12.80
2019-02-24T14:53:35.872Z,12.34
2019-02-24T14:58:37.565Z,11.89
2019-02-24T15:03:39.170Z,11.44
2019-02-24T15:08:40.751Z,11.21
2019-02-24T15:13:42.309Z,11.06
2019-02-24T15:18:43.910Z,10.96
2019-02-24T15:23:45.464Z,10.96
2019-02-24T15:28:47.045Z,11.08
2019-02-24T15:33:48.619Z,11.14
2019-02-24T15:38:50.295Z,11.01
2019-02-24T15:43:54.430Z,10.92
2019-02-24T15:48:55.987Z,10.98
2019-02-24T15:53:57.693Z,11.08
2019-02-24T15:58:59.254Z,11.15
2019-02-24T16:04:00.802Z,11.17
2019-02-24T16:09:02.366Z,11.10
2019-02-24T16:14:04.071Z,11.08
2019-02-24T16:19:05.704Z,11.17
2019-02-24T16:24:07.403Z,11.19
2019-02-24T16:29:08.987Z,11.08
2019-02-24T16:34:10.572Z,10.84
2019-02-24T16:39:12.126Z,10.54
2019-02-24T16:44:13.824Z,10.09
2019-02-24T16:49:15.379Z,9.74
2019-02-24T16:54:16.974Z,9.44
2019-02-24T16:59:18.668Z,9.15
2019-02-24T17:04:20.209Z,8.90
2019-02-24T17:09:21.828Z,8.75
2019-02-24T17:14:24.872Z,8.63
2019-02-24T17:19:26.565Z,8.51
2019-02-24T17:24:28.147Z,8.38
2019-02-24T17:34:47.853Z,8.26
2019-02-24T17:39:49.471Z,8.02
2019-02-24T17:44:51.088Z,7.87
2019-02-24T17:49:52.677Z,7.80
2019-02-24T17:54:54.277Z,7.66
2019-02-24T17:59:55.957Z,7.51
2019-02-24T18:04:57.632Z,7.38
2019-02-24T18:09:59.213Z,7.26
2019-02-24T18:15:00.942Z,7.11
2019-02-24T18:20:02.759Z,7.04
2019-02-24T18:25:05.696Z,7.06
2019-02-24T18:30:13.948Z,7.00
2019-02-24T18:35:15.538Z,6.88
2019-02-24T18:40:17.230Z,6.78
2019-02-24T18:45:18.953Z,6.59
2019-02-24T18:50:20.535Z,6.49
2019-02-24T18:55:22.210Z,6.47
2019-02-24T19:00:23.886Z,6.43
2019-02-24T19:05:25.464Z,6.25
2019-02-24T19:10:27.430Z,6.30
2019-02-24T19:15:29.029Z,6.37
2019-02-24T19:20:30.757Z,6.38
2019-02-24T19:25:32.427Z,6.26
2019-02-24T19:30:34.155Z,6.20
2019-02-24T19:35:35.881Z,6.19
2019-02-24T19:40:37.481Z,6.33
2019-02-24T19:45:39.059Z,6.20
2019-02-24T19:50:40.633Z,6.11
2019-02-24T19:55:42.322Z,6.06
2019-02-24T20:00:44.017Z,6.01
2019-02-24T20:05:45.611Z,5.99
2019-02-24T20:10:47.196Z,6.00
2019-02-24T20:15:48.791Z,5.95
2019-02-24T20:20:50.401Z,5.93
2019-02-24T20:25:51.988Z,5.80
2019-02-24T20:30:53.570Z,5.71
2019-02-24T20:35:55.156Z,5.56
2019-02-24T20:40:56.724Z,5.44
2019-02-24T20:45:58.337Z,5.37
2019-02-24T20:50:59.962Z,5.27
2019-02-24T20:56:01.585Z,5.32
2019-02-24T21:01:05.365Z,5.37
2019-02-24T21:06:07.064Z,5.37
2019-02-24T21:11:08.676Z,5.32
2019-02-24T21:16:10.250Z,5.29
2019-02-24T21:21:11.833Z,5.26
2019-02-24T21:26:13.579Z,5.29
2019-02-24T21:31:15.269Z,5.24
2019-02-24T21:36:16.981Z,5.20
2019-02-24T21:41:18.574Z,5.26
2019-02-24T21:46:20.182Z,5.27
2019-02-24T21:51:21.961Z,5.20
2019-02-24T21:56:23.554Z,5.14
2019-02-24T22:01:25.247Z,5.23
2019-02-24T22:06:26.838Z,5.15
2019-02-24T22:11:28.432Z,5.10
2019-02-24T22:16:30.006Z,5.00
2019-02-24T22:21:31.589Z,4.86
2019-02-24T22:26:33.183Z,4.74
2019-02-24T22:31:34.767Z,4.67
2019-02-24T22:36:36.323Z,4.64
2019-02-24T22:41:37.903Z,4.55
2019-02-24T22:46:39.494Z,4.41
2019-02-24T22:51:41.110Z,4.42
2019-02-24T22:56:42.833Z,4.44
2019-02-24T23:01:45.065Z,4.42
2019-02-24T23:06:46.653Z,4.32
2019-02-24T23:11:48.383Z,4.20
2019-02-24T23:16:50.049Z,4.22
2019-02-24T23:21:51.796Z,4.22
2019-02-24T23:26:53.392Z,4.19
2019-02-24T23:31:55.161Z,4.21
2019-02-24T23:36:56.704Z,4.22
2019-02-24T23:41:58.388Z,4.07
2019-02-24T23:47:00.195Z,4.02
2019-02-24T23:52:01.780Z,3.99
2019-02-24T23:57:03.488Z,3.90
